Forest Green, Missouri
Current Conditions -  °F | °C
As of 4:15 PM on Friday 28 Nov 2014 (Local Time) from KMHL Reporting Station
Clear Clear  
Wind Chill: 61°   Ceiling: Unl
Heat Index: 61°   Visibility: 10mi
Dew Point: 37°   Wind: 14mph
Humidity: 42%   Direction: 200°SSW
Pressure: 29.85"   Gusts: 17mph
Location:  39.4605°N, 92.8061°W
Report Text: KMHL 282215Z AUTO 20012G15KT 10SM CLR 16/03 A2985 RMK AO2
Loading
Personal Weather Stations






























Interactive Weather Map New forecast layout! Learn more

10-Day Weather Forecast

Advertisements
Track Severe Weather on mobile